sensor_id;sensor_type;location;lat;lon;timestamp;P1;durP1;ratioP1;P2;durP2;ratioP2
36475;SDS011;56615;42.682;23.364;2023-06-10T00:02:42;9.88;;;6.03;;
36475;SDS011;56615;42.682;23.364;2023-06-10T00:05:09;12.82;;;6.18;;
36475;SDS011;56615;42.682;23.364;2023-06-10T00:07:38;14.13;;;6.35;;
36475;SDS011;56615;42.682;23.364;2023-06-10T00:10:06;9.68;;;5.75;;
36475;SDS011;56615;42.682;23.364;2023-06-10T00:12:40;9.57;;;5.75;;
36475;SDS011;56615;42.682;23.364;2023-06-10T00:15:09;10.23;;;6.78;;
36475;SDS011;56615;42.682;23.364;2023-06-10T00:17:37;10.75;;;6.50;;
36475;SDS011;56615;42.682;23.364;2023-06-10T00:20:07;10.10;;;6.32;;
36475;SDS011;56615;42.682;23.364;2023-06-10T00:22:36;10.75;;;6.82;;
36475;SDS011;56615;42.682;23.364;2023-06-10T00:25:03;11.38;;;7.07;;
36475;SDS011;56615;42.682;23.364;2023-06-10T00:27:30;11.88;;;7.00;;
36475;SDS011;56615;42.682;23.364;2023-06-10T00:30:02;11.50;;;6.90;;
36475;SDS011;56615;42.682;23.364;2023-06-10T00:32:31;13.88;;;7.97;;
36475;SDS011;56615;42.682;23.364;2023-06-10T00:34:57;11.73;;;7.50;;
36475;SDS011;56615;42.682;23.364;2023-06-10T00:37:22;12.50;;;8.30;;
36475;SDS011;56615;42.682;23.364;2023-06-10T00:39:55;11.57;;;8.23;;
36475;SDS011;56615;42.682;23.364;2023-06-10T00:45:01;10.70;;;7.28;;
36475;SDS011;56615;42.682;23.364;2023-06-10T00:47:29;12.32;;;7.72;;
36475;SDS011;56615;42.682;23.364;2023-06-10T00:50:02;11.75;;;7.88;;
36475;SDS011;56615;42.682;23.364;2023-06-10T00:52:31;12.93;;;7.43;;
36475;SDS011;56615;42.682;23.364;2023-06-10T00:55:02;11.35;;;7.25;;
36475;SDS011;56615;42.682;23.364;2023-06-10T00:57:28;11.73;;;7.70;;
36475;SDS011;56615;42.682;23.364;2023-06-10T00:59:55;10.80;;;6.85;;
36475;SDS011;56615;42.682;23.364;2023-06-10T01:02:24;12.50;;;7.47;;
36475;SDS011;56615;42.682;23.364;2023-06-10T01:04:50;16.27;;;7.15;;
36475;SDS011;56615;42.682;23.364;2023-06-10T01:07:20;11.55;;;7.28;;
36475;SDS011;56615;42.682;23.364;2023-06-10T01:12:26;11.85;;;7.07;;
36475;SDS011;56615;42.682;23.364;2023-06-10T01:14:59;10.55;;;6.70;;
36475;SDS011;56615;42.682;23.364;2023-06-10T01:17:29;11.27;;;7.15;;
36475;SDS011;56615;42.682;23.364;2023-06-10T01:19:56;11.27;;;7.78;;
36475;SDS011;56615;42.682;23.364;2023-06-10T01:22:27;12.32;;;7.57;;
36475;SDS011;56615;42.682;23.364;2023-06-10T01:25:01;11.82;;;8.02;;
36475;SDS011;56615;42.682;23.364;2023-06-10T01:27:31;12.70;;;7.57;;
36475;SDS011;56615;42.682;23.364;2023-06-10T01:30:02;11.02;;;8.07;;
36475;SDS011;56615;42.682;23.364;2023-06-10T01:32:40;10.52;;;7.55;;
36475;SDS011;56615;42.682;23.364;2023-06-10T01:35:10;12.15;;;7.45;;
36475;SDS011;56615;42.682;23.364;2023-06-10T01:37:37;12.75;;;7.68;;
36475;SDS011;56615;42.682;23.364;2023-06-10T01:40:05;11.63;;;7.40;;
36475;SDS011;56615;42.682;23.364;2023-06-10T01:42:34;11.38;;;7.28;;
36475;SDS011;56615;42.682;23.364;2023-06-10T01:45:06;10.95;;;7.32;;
36475;SDS011;56615;42.682;23.364;2023-06-10T01:47:32;10.27;;;7.15;;
36475;SDS011;56615;42.682;23.364;2023-06-10T01:50:01;9.38;;;6.90;;
36475;SDS011;56615;42.682;23.364;2023-06-10T01:52:30;12.27;;;7.18;;
36475;SDS011;56615;42.682;23.364;2023-06-10T01:54:55;10.43;;;7.50;;
36475;SDS011;56615;42.682;23.364;2023-06-10T01:57:23;11.82;;;7.57;;
36475;SDS011;56615;42.682;23.364;2023-06-10T01:59:49;12.27;;;8.10;;
36475;SDS011;56615;42.682;23.364;2023-06-10T02:02:15;13.00;;;7.60;;
36475;SDS011;56615;42.682;23.364;2023-06-10T02:04:41;13.43;;;8.20;;
36475;SDS011;56615;42.682;23.364;2023-06-10T02:07:06;11.40;;;7.88;;
36475;SDS011;56615;42.682;23.364;2023-06-10T02:09:31;12.80;;;7.43;;
36475;SDS011;56615;42.682;23.364;2023-06-10T02:11:59;11.90;;;7.57;;
36475;SDS011;56615;42.682;23.364;2023-06-10T02:14:29;11.00;;;7.60;;
36475;SDS011;56615;42.682;23.364;2023-06-10T02:16:55;13.77;;;7.32;;
36475;SDS011;56615;42.682;23.364;2023-06-10T02:19:21;13.75;;;7.13;;
36475;SDS011;56615;42.682;23.364;2023-06-10T02:21:51;11.85;;;7.60;;
36475;SDS011;56615;42.682;23.364;2023-06-10T02:24:18;12.07;;;8.13;;
36475;SDS011;56615;42.682;23.364;2023-06-10T02:26:47;13.48;;;7.85;;
36475;SDS011;56615;42.682;23.364;2023-06-10T02:29:13;11.52;;;8.07;;
36475;SDS011;56615;42.682;23.364;2023-06-10T02:31:38;12.73;;;8.15;;
36475;SDS011;56615;42.682;23.364;2023-06-10T02:34:04;12.02;;;8.05;;
36475;SDS011;56615;42.682;23.364;2023-06-10T02:36:32;11.98;;;7.57;;
36475;SDS011;56615;42.682;23.364;2023-06-10T02:38:58;13.13;;;8.05;;
36475;SDS011;56615;42.682;23.364;2023-06-10T02:41:28;12.07;;;7.88;;
36475;SDS011;56615;42.682;23.364;2023-06-10T02:43:56;12.57;;;8.30;;
36475;SDS011;56615;42.682;23.364;2023-06-10T02:46:25;13.13;;;8.02;;
36475;SDS011;56615;42.682;23.364;2023-06-10T02:48:59;11.05;;;7.90;;
36475;SDS011;56615;42.682;23.364;2023-06-10T02:51:40;17.05;;;7.93;;
36475;SDS011;56615;42.682;23.364;2023-06-10T02:54:15;12.93;;;7.75;;
36475;SDS011;56615;42.682;23.364;2023-06-10T02:57:05;14.23;;;8.30;;
36475;SDS011;56615;42.682;23.364;2023-06-10T02:59:33;13.48;;;7.90;;
36475;SDS011;56615;42.682;23.364;2023-06-10T03:02:00;10.77;;;7.80;;
36475;SDS011;56615;42.682;23.364;2023-06-10T03:04:26;11.27;;;7.82;;
36475;SDS011;56615;42.682;23.364;2023-06-10T03:06:54;13.13;;;8.07;;
36475;SDS011;56615;42.682;23.364;2023-06-10T03:09:23;12.70;;;8.38;;
36475;SDS011;56615;42.682;23.364;2023-06-10T03:11:53;12.80;;;8.23;;
36475;SDS011;56615;42.682;23.364;2023-06-10T03:14:25;12.45;;;7.78;;
36475;SDS011;56615;42.682;23.364;2023-06-10T03:17:02;13.43;;;7.65;;
36475;SDS011;56615;42.682;23.364;2023-06-10T03:19:29;12.27;;;7.97;;
36475;SDS011;56615;42.682;23.364;2023-06-10T03:22:13;14.77;;;8.20;;
36475;SDS011;56615;42.682;23.364;2023-06-10T03:24:46;12.00;;;7.57;;
36475;SDS011;56615;42.682;23.364;2023-06-10T03:27:15;12.80;;;8.10;;
36475;SDS011;56615;42.682;23.364;2023-06-10T03:29:41;11.98;;;7.93;;
36475;SDS011;56615;42.682;23.364;2023-06-10T03:32:09;12.98;;;7.93;;
36475;SDS011;56615;42.682;23.364;2023-06-10T03:34:40;14.30;;;8.10;;
36475;SDS011;56615;42.682;23.364;2023-06-10T03:37:21;11.57;;;7.55;;
36475;SDS011;56615;42.682;23.364;2023-06-10T03:39:46;13.35;;;8.00;;
36475;SDS011;56615;42.682;23.364;2023-06-10T03:42:13;11.15;;;6.97;;
36475;SDS011;56615;42.682;23.364;2023-06-10T03:44:39;11.23;;;7.30;;
36475;SDS011;56615;42.682;23.364;2023-06-10T03:47:06;21.33;;;15.82;;
36475;SDS011;56615;42.682;23.364;2023-06-10T03:49:32;12.95;;;7.30;;
36475;SDS011;56615;42.682;23.364;2023-06-10T03:51:59;13.10;;;6.80;;
36475;SDS011;56615;42.682;23.364;2023-06-10T03:54:27;12.98;;;6.75;;
36475;SDS011;56615;42.682;23.364;2023-06-10T03:56:52;12.90;;;6.40;;
36475;SDS011;56615;42.682;23.364;2023-06-10T03:59:27;10.13;;;6.30;;
36475;SDS011;56615;42.682;23.364;2023-06-10T04:01:53;8.85;;;5.35;;
36475;SDS011;56615;42.682;23.364;2023-06-10T04:04:19;10.18;;;5.80;;
36475;SDS011;56615;42.682;23.364;2023-06-10T04:06:45;11.57;;;5.47;;
36475;SDS011;56615;42.682;23.364;2023-06-10T04:09:10;10.93;;;5.78;;
36475;SDS011;56615;42.682;23.364;2023-06-10T04:11:37;10.82;;;5.28;;
36475;SDS011;56615;42.682;23.364;2023-06-10T04:14:03;9.82;;;5.25;;
36475;SDS011;56615;42.682;23.364;2023-06-10T04:16:33;9.80;;;5.20;;
36475;SDS011;56615;42.682;23.364;2023-06-10T04:19:03;9.43;;;5.50;;
36475;SDS011;56615;42.682;23.364;2023-06-10T04:21:32;9.15;;;4.88;;
36475;SDS011;56615;42.682;23.364;2023-06-10T04:26:28;8.43;;;5.28;;
36475;SDS011;56615;42.682;23.364;2023-06-10T04:28:56;9.57;;;5.68;;
36475;SDS011;56615;42.682;23.364;2023-06-10T04:31:22;10.25;;;6.10;;
36475;SDS011;56615;42.682;23.364;2023-06-10T04:33:50;12.88;;;5.35;;
36475;SDS011;56615;42.682;23.364;2023-06-10T04:36:17;14.07;;;5.68;;
36475;SDS011;56615;42.682;23.364;2023-06-10T04:38:44;9.32;;;5.50;;
36475;SDS011;56615;42.682;23.364;2023-06-10T04:41:20;12.65;;;6.40;;
36475;SDS011;56615;42.682;23.364;2023-06-10T04:43:49;9.70;;;6.07;;
36475;SDS011;56615;42.682;23.364;2023-06-10T04:46:19;10.23;;;5.90;;
36475;SDS011;56615;42.682;23.364;2023-06-10T04:48:45;12.95;;;6.60;;
36475;SDS011;56615;42.682;23.364;2023-06-10T04:51:12;11.98;;;6.40;;
36475;SDS011;56615;42.682;23.364;2023-06-10T04:53:38;12.57;;;7.05;;
36475;SDS011;56615;42.682;23.364;2023-06-10T04:56:05;13.48;;;6.80;;
36475;SDS011;56615;42.682;23.364;2023-06-10T04:58:30;10.88;;;6.50;;
36475;SDS011;56615;42.682;23.364;2023-06-10T05:00:57;11.77;;;6.32;;
36475;SDS011;56615;42.682;23.364;2023-06-10T05:03:23;10.63;;;6.57;;
36475;SDS011;56615;42.682;23.364;2023-06-10T05:06:13;11.32;;;6.40;;
36475;SDS011;56615;42.682;23.364;2023-06-10T05:08:46;12.60;;;6.18;;
36475;SDS011;56615;42.682;23.364;2023-06-10T05:11:32;11.07;;;6.80;;
36475;SDS011;56615;42.682;23.364;2023-06-10T05:14:16;12.25;;;6.40;;
36475;SDS011;56615;42.682;23.364;2023-06-10T05:16:45;11.73;;;6.05;;
36475;SDS011;56615;42.682;23.364;2023-06-10T05:19:22;12.25;;;6.72;;
36475;SDS011;56615;42.682;23.364;2023-06-10T05:22:17;10.52;;;6.57;;
36475;SDS011;56615;42.682;23.364;2023-06-10T05:24:58;16.42;;;7.28;;
36475;SDS011;56615;42.682;23.364;2023-06-10T05:27:26;9.45;;;6.18;;
36475;SDS011;56615;42.682;23.364;2023-06-10T05:30:02;14.20;;;6.80;;
36475;SDS011;56615;42.682;23.364;2023-06-10T05:32:54;13.35;;;7.35;;
36475;SDS011;56615;42.682;23.364;2023-06-10T05:35:21;10.60;;;6.88;;
36475;SDS011;56615;42.682;23.364;2023-06-10T05:37:53;14.30;;;7.18;;
36475;SDS011;56615;42.682;23.364;2023-06-10T05:40:18;12.63;;;7.15;;
36475;SDS011;56615;42.682;23.364;2023-06-10T05:42:45;12.60;;;7.35;;
36475;SDS011;56615;42.682;23.364;2023-06-10T05:45:11;12.98;;;8.38;;
36475;SDS011;56615;42.682;23.364;2023-06-10T05:47:47;13.27;;;8.30;;
36475;SDS011;56615;42.682;23.364;2023-06-10T05:50:25;12.30;;;8.55;;
36475;SDS011;56615;42.682;23.364;2023-06-10T05:52:52;17.90;;;8.40;;
36475;SDS011;56615;42.682;23.364;2023-06-10T05:55:24;12.55;;;8.45;;
36475;SDS011;56615;42.682;23.364;2023-06-10T05:57:59;13.57;;;8.02;;
36475;SDS011;56615;42.682;23.364;2023-06-10T06:00:27;13.10;;;7.95;;
36475;SDS011;56615;42.682;23.364;2023-06-10T06:02:54;11.93;;;8.13;;
36475;SDS011;56615;42.682;23.364;2023-06-10T06:05:31;15.88;;;8.35;;
36475;SDS011;56615;42.682;23.364;2023-06-10T06:08:09;14.15;;;8.00;;
36475;SDS011;56615;42.682;23.364;2023-06-10T06:10:35;13.98;;;7.63;;
36475;SDS011;56615;42.682;23.364;2023-06-10T06:13:01;17.85;;;8.98;;
36475;SDS011;56615;42.682;23.364;2023-06-10T06:15:27;13.25;;;8.30;;
36475;SDS011;56615;42.682;23.364;2023-06-10T06:17:54;13.75;;;8.30;;
36475;SDS011;56615;42.682;23.364;2023-06-10T06:20:20;13.70;;;8.05;;
36475;SDS011;56615;42.682;23.364;2023-06-10T06:22:46;16.70;;;7.38;;
36475;SDS011;56615;42.682;23.364;2023-06-10T06:25:12;14.57;;;8.25;;
36475;SDS011;56615;42.682;23.364;2023-06-10T06:27:37;11.65;;;7.53;;
36475;SDS011;56615;42.682;23.364;2023-06-10T06:30:03;16.55;;;8.38;;
36475;SDS011;56615;42.682;23.364;2023-06-10T06:32:29;13.57;;;7.90;;
36475;SDS011;56615;42.682;23.364;2023-06-10T06:34:55;13.35;;;8.13;;
36475;SDS011;56615;42.682;23.364;2023-06-10T06:37:24;14.80;;;8.02;;
36475;SDS011;56615;42.682;23.364;2023-06-10T06:39:53;16.23;;;7.07;;
36475;SDS011;56615;42.682;23.364;2023-06-10T06:42:19;12.65;;;7.72;;
36475;SDS011;56615;42.682;23.364;2023-06-10T06:45:33;14.63;;;7.22;;
36475;SDS011;56615;42.682;23.364;2023-06-10T06:47:40;12.57;;;7.30;;
36475;SDS011;56615;42.682;23.364;2023-06-10T06:50:05;12.98;;;7.72;;
36475;SDS011;56615;42.682;23.364;2023-06-10T06:52:31;11.95;;;7.10;;
36475;SDS011;56615;42.682;23.364;2023-06-10T06:54:56;13.65;;;6.80;;
36475;SDS011;56615;42.682;23.364;2023-06-10T06:57:29;11.25;;;6.38;;
36475;SDS011;56615;42.682;23.364;2023-06-10T06:59:54;12.93;;;6.97;;
36475;SDS011;56615;42.682;23.364;2023-06-10T07:02:20;18.98;;;9.10;;
36475;SDS011;56615;42.682;23.364;2023-06-10T07:04:45;11.45;;;6.60;;
36475;SDS011;56615;42.682;23.364;2023-06-10T07:10:07;8.80;;;5.25;;
36475;SDS011;56615;42.682;23.364;2023-06-10T07:12:32;12.77;;;5.70;;
36475;SDS011;56615;42.682;23.364;2023-06-10T07:14:58;9.73;;;5.50;;
36475;SDS011;56615;42.682;23.364;2023-06-10T07:17:24;9.30;;;5.70;;
36475;SDS011;56615;42.682;23.364;2023-06-10T07:19:52;10.45;;;5.28;;
36475;SDS011;56615;42.682;23.364;2023-06-10T07:22:25;10.20;;;5.30;;
36475;SDS011;56615;42.682;23.364;2023-06-10T07:24:54;9.95;;;5.22;;
36475;SDS011;56615;42.682;23.364;2023-06-10T07:27:21;7.53;;;4.90;;
36475;SDS011;56615;42.682;23.364;2023-06-10T07:29:56;10.48;;;4.80;;
36475;SDS011;56615;42.682;23.364;2023-06-10T07:32:45;8.95;;;4.10;;
36475;SDS011;56615;42.682;23.364;2023-06-10T07:35:15;7.85;;;5.03;;
36475;SDS011;56615;42.682;23.364;2023-06-10T07:38:03;11.80;;;5.45;;
36475;SDS011;56615;42.682;23.364;2023-06-10T07:40:47;10.02;;;5.20;;
36475;SDS011;56615;42.682;23.364;2023-06-10T07:43:34;11.57;;;5.53;;
36475;SDS011;56615;42.682;23.364;2023-06-10T07:45:59;9.40;;;5.05;;
36475;SDS011;56615;42.682;23.364;2023-06-10T07:48:26;6.80;;;3.97;;
36475;SDS011;56615;42.682;23.364;2023-06-10T07:50:51;6.47;;;3.75;;
36475;SDS011;56615;42.682;23.364;2023-06-10T07:53:17;8.60;;;5.38;;
36475;SDS011;56615;42.682;23.364;2023-06-10T07:55:43;8.30;;;5.10;;
36475;SDS011;56615;42.682;23.364;2023-06-10T07:58:08;7.20;;;4.05;;
36475;SDS011;56615;42.682;23.364;2023-06-10T08:00:35;7.05;;;3.67;;
36475;SDS011;56615;42.682;23.364;2023-06-10T08:03:00;11.00;;;4.13;;
36475;SDS011;56615;42.682;23.364;2023-06-10T08:05:26;8.15;;;3.83;;
36475;SDS011;56615;42.682;23.364;2023-06-10T08:07:51;7.55;;;3.50;;
36475;SDS011;56615;42.682;23.364;2023-06-10T08:10:17;5.03;;;3.22;;
36475;SDS011;56615;42.682;23.364;2023-06-10T08:12:42;5.60;;;3.60;;
36475;SDS011;56615;42.682;23.364;2023-06-10T08:15:08;5.88;;;3.28;;
36475;SDS011;56615;42.682;23.364;2023-06-10T08:17:33;6.07;;;3.20;;
36475;SDS011;56615;42.682;23.364;2023-06-10T08:20:00;10.82;;;3.92;;
36475;SDS011;56615;42.682;23.364;2023-06-10T08:22:26;5.68;;;3.45;;
36475;SDS011;56615;42.682;23.364;2023-06-10T08:24:54;6.15;;;3.47;;
36475;SDS011;56615;42.682;23.364;2023-06-10T08:27:21;7.63;;;3.40;;
36475;SDS011;56615;42.682;23.364;2023-06-10T08:29:46;6.28;;;3.63;;
36475;SDS011;56615;42.682;23.364;2023-06-10T08:32:11;5.97;;;3.50;;
36475;SDS011;56615;42.682;23.364;2023-06-10T08:34:37;6.28;;;3.05;;
36475;SDS011;56615;42.682;23.364;2023-06-10T08:37:03;4.90;;;2.97;;
36475;SDS011;56615;42.682;23.364;2023-06-10T08:39:29;8.15;;;3.53;;
36475;SDS011;56615;42.682;23.364;2023-06-10T08:44:32;5.07;;;2.95;;
36475;SDS011;56615;42.682;23.364;2023-06-10T08:47:03;5.82;;;3.22;;
36475;SDS011;56615;42.682;23.364;2023-06-10T08:49:41;7.60;;;3.20;;
36475;SDS011;56615;42.682;23.364;2023-06-10T08:52:09;4.70;;;3.17;;
36475;SDS011;56615;42.682;23.364;2023-06-10T08:54:38;4.80;;;3.00;;
36475;SDS011;56615;42.682;23.364;2023-06-10T08:57:16;3.67;;;2.70;;
36475;SDS011;56615;42.682;23.364;2023-06-10T08:59:52;5.78;;;2.75;;
36475;SDS011;56615;42.682;23.364;2023-06-10T09:02:24;4.00;;;2.30;;
36475;SDS011;56615;42.682;23.364;2023-06-10T09:04:56;5.63;;;2.50;;
36475;SDS011;56615;42.682;23.364;2023-06-10T09:07:25;6.32;;;3.03;;
36475;SDS011;56615;42.682;23.364;2023-06-10T09:09:52;5.65;;;3.20;;
36475;SDS011;56615;42.682;23.364;2023-06-10T09:12:19;5.40;;;2.70;;
36475;SDS011;56615;42.682;23.364;2023-06-10T09:14:53;5.80;;;2.95;;
36475;SDS011;56615;42.682;23.364;2023-06-10T09:17:23;6.13;;;3.15;;
36475;SDS011;56615;42.682;23.364;2023-06-10T09:19:50;4.55;;;2.95;;
36475;SDS011;56615;42.682;23.364;2023-06-10T09:22:15;5.05;;;3.53;;
36475;SDS011;56615;42.682;23.364;2023-06-10T09:24:41;4.35;;;2.70;;
36475;SDS011;56615;42.682;23.364;2023-06-10T09:27:07;5.47;;;2.90;;
36475;SDS011;56615;42.682;23.364;2023-06-10T09:29:52;5.45;;;3.00;;
36475;SDS011;56615;42.682;23.364;2023-06-10T09:32:19;5.68;;;3.17;;
36475;SDS011;56615;42.682;23.364;2023-06-10T09:34:50;6.88;;;3.08;;
36475;SDS011;56615;42.682;23.364;2023-06-10T09:37:25;3.67;;;2.50;;
36475;SDS011;56615;42.682;23.364;2023-06-10T09:40:01;5.00;;;2.90;;
36475;SDS011;56615;42.682;23.364;2023-06-10T09:42:33;6.45;;;2.83;;
36475;SDS011;56615;42.682;23.364;2023-06-10T09:45:00;5.13;;;3.08;;
36475;SDS011;56615;42.682;23.364;2023-06-10T09:47:29;4.22;;;2.83;;
36475;SDS011;56615;42.682;23.364;2023-06-10T09:49:55;6.68;;;3.15;;
36475;SDS011;56615;42.682;23.364;2023-06-10T09:52:21;6.20;;;3.20;;
36475;SDS011;56615;42.682;23.364;2023-06-10T09:54:49;5.43;;;3.40;;
36475;SDS011;56615;42.682;23.364;2023-06-10T09:57:25;8.85;;;3.95;;
36475;SDS011;56615;42.682;23.364;2023-06-10T09:59:54;6.22;;;3.50;;
36475;SDS011;56615;42.682;23.364;2023-06-10T10:02:19;6.18;;;3.53;;
36475;SDS011;56615;42.682;23.364;2023-06-10T10:04:45;9.07;;;4.00;;
36475;SDS011;56615;42.682;23.364;2023-06-10T10:07:11;5.88;;;3.63;;
36475;SDS011;56615;42.682;23.364;2023-06-10T10:09:37;5.97;;;3.17;;
36475;SDS011;56615;42.682;23.364;2023-06-10T10:12:08;5.35;;;2.90;;
36475;SDS011;56615;42.682;23.364;2023-06-10T10:14:36;3.63;;;2.53;;
36475;SDS011;56615;42.682;23.364;2023-06-10T10:17:02;5.95;;;3.08;;
36475;SDS011;56615;42.682;23.364;2023-06-10T10:19:30;6.60;;;3.72;;
36475;SDS011;56615;42.682;23.364;2023-06-10T10:22:00;8.07;;;4.40;;
36475;SDS011;56615;42.682;23.364;2023-06-10T10:24:31;8.77;;;3.92;;
36475;SDS011;56615;42.682;23.364;2023-06-10T10:26:59;5.25;;;3.45;;
36475;SDS011;56615;42.682;23.364;2023-06-10T10:29:30;8.38;;;3.38;;
36475;SDS011;56615;42.682;23.364;2023-06-10T10:32:02;5.90;;;3.70;;
36475;SDS011;56615;42.682;23.364;2023-06-10T10:34:30;7.38;;;3.58;;
36475;SDS011;56615;42.682;23.364;2023-06-10T10:37:21;5.15;;;3.17;;
36475;SDS011;56615;42.682;23.364;2023-06-10T10:39:47;6.65;;;2.85;;
36475;SDS011;56615;42.682;23.364;2023-06-10T10:42:13;6.03;;;3.33;;
36475;SDS011;56615;42.682;23.364;2023-06-10T10:44:38;6.75;;;3.30;;
36475;SDS011;56615;42.682;23.364;2023-06-10T10:47:11;6.15;;;3.30;;
36475;SDS011;56615;42.682;23.364;2023-06-10T10:49:37;6.20;;;3.35;;
36475;SDS011;56615;42.682;23.364;2023-06-10T10:52:10;6.25;;;3.53;;
36475;SDS011;56615;42.682;23.364;2023-06-10T10:54:36;4.90;;;2.92;;
36475;SDS011;56615;42.682;23.364;2023-06-10T11:05:10;9.10;;;3.53;;
36475;SDS011;56615;42.682;23.364;2023-06-10T11:07:38;5.75;;;3.33;;
36475;SDS011;56615;42.682;23.364;2023-06-10T11:15:18;5.88;;;3.20;;
36475;SDS011;56615;42.682;23.364;2023-06-10T11:31:41;8.13;;;4.38;;
36475;SDS011;56615;42.682;23.364;2023-06-10T11:34:08;6.88;;;3.40;;
36475;SDS011;56615;42.682;23.364;2023-06-10T11:36:34;9.55;;;3.95;;
36475;SDS011;56615;42.682;23.364;2023-06-10T11:39:05;6.53;;;3.78;;
36475;SDS011;56615;42.682;23.364;2023-06-10T11:41:34;6.03;;;3.78;;
36475;SDS011;56615;42.682;23.364;2023-06-10T11:44:04;6.38;;;3.40;;
36475;SDS011;56615;42.682;23.364;2023-06-10T11:46:33;6.00;;;3.53;;
36475;SDS011;56615;42.682;23.364;2023-06-10T11:49:00;6.28;;;3.30;;
36475;SDS011;56615;42.682;23.364;2023-06-10T11:51:32;4.70;;;3.28;;
36475;SDS011;56615;42.682;23.364;2023-06-10T11:54:00;7.07;;;3.30;;
36475;SDS011;56615;42.682;23.364;2023-06-10T11:56:27;6.78;;;3.08;;
36475;SDS011;56615;42.682;23.364;2023-06-10T11:58:59;4.30;;;2.90;;
36475;SDS011;56615;42.682;23.364;2023-06-10T12:01:29;4.55;;;2.90;;
36475;SDS011;56615;42.682;23.364;2023-06-10T12:04:06;6.25;;;2.60;;
36475;SDS011;56615;42.682;23.364;2023-06-10T12:06:39;5.97;;;2.75;;
36475;SDS011;56615;42.682;23.364;2023-06-10T12:09:05;5.97;;;3.15;;
36475;SDS011;56615;42.682;23.364;2023-06-10T12:11:32;6.38;;;3.15;;
36475;SDS011;56615;42.682;23.364;2023-06-10T12:13:58;4.88;;;2.67;;
36475;SDS011;56615;42.682;23.364;2023-06-10T12:16:23;6.43;;;2.70;;
36475;SDS011;56615;42.682;23.364;2023-06-10T12:18:48;6.00;;;2.72;;
36475;SDS011;56615;42.682;23.364;2023-06-10T12:21:19;4.63;;;2.78;;
36475;SDS011;56615;42.682;23.364;2023-06-10T12:26:34;4.18;;;2.60;;
36475;SDS011;56615;42.682;23.364;2023-06-10T12:29:01;7.85;;;3.05;;
36475;SDS011;56615;42.682;23.364;2023-06-10T12:31:53;6.10;;;3.30;;
36475;SDS011;56615;42.682;23.364;2023-06-10T12:34:30;7.03;;;2.92;;
36475;SDS011;56615;42.682;23.364;2023-06-10T12:36:56;6.38;;;2.80;;
36475;SDS011;56615;42.682;23.364;2023-06-10T12:39:22;4.82;;;2.70;;
36475;SDS011;56615;42.682;23.364;2023-06-10T12:41:49;7.18;;;2.90;;
36475;SDS011;56615;42.682;23.364;2023-06-10T12:44:16;5.43;;;2.95;;
36475;SDS011;56615;42.682;23.364;2023-06-10T12:46:41;5.38;;;2.88;;
36475;SDS011;56615;42.682;23.364;2023-06-10T12:49:07;5.15;;;2.63;;
36475;SDS011;56615;42.682;23.364;2023-06-10T12:51:32;4.60;;;2.58;;
36475;SDS011;56615;42.682;23.364;2023-06-10T12:54:00;6.28;;;2.83;;
36475;SDS011;56615;42.682;23.364;2023-06-10T12:56:26;6.00;;;2.80;;
36475;SDS011;56615;42.682;23.364;2023-06-10T12:58:52;5.28;;;2.55;;
36475;SDS011;56615;42.682;23.364;2023-06-10T13:01:18;3.50;;;2.47;;
36475;SDS011;56615;42.682;23.364;2023-06-10T13:03:43;3.80;;;2.60;;
36475;SDS011;56615;42.682;23.364;2023-06-10T13:06:09;5.65;;;2.78;;
36475;SDS011;56615;42.682;23.364;2023-06-10T13:08:34;5.65;;;2.85;;
36475;SDS011;56615;42.682;23.364;2023-06-10T13:11:00;5.15;;;2.90;;
36475;SDS011;56615;42.682;23.364;2023-06-10T13:13:26;5.80;;;2.92;;
36475;SDS011;56615;42.682;23.364;2023-06-10T13:15:51;3.90;;;2.47;;
36475;SDS011;56615;42.682;23.364;2023-06-10T13:18:17;4.95;;;2.95;;
36475;SDS011;56615;42.682;23.364;2023-06-10T13:20:46;4.45;;;2.50;;
36475;SDS011;56615;42.682;23.364;2023-06-10T13:23:15;9.25;;;4.07;;
36475;SDS011;56615;42.682;23.364;2023-06-10T13:28:28;6.65;;;3.30;;
36475;SDS011;56615;42.682;23.364;2023-06-10T13:30:54;4.97;;;3.35;;
36475;SDS011;56615;42.682;23.364;2023-06-10T13:33:19;8.02;;;3.50;;
36475;SDS011;56615;42.682;23.364;2023-06-10T13:35:45;8.52;;;3.35;;
36475;SDS011;56615;42.682;23.364;2023-06-10T13:38:10;7.53;;;3.42;;
36475;SDS011;56615;42.682;23.364;2023-06-10T13:40:35;9.40;;;4.10;;
36475;SDS011;56615;42.682;23.364;2023-06-10T13:43:01;8.00;;;3.28;;
36475;SDS011;56615;42.682;23.364;2023-06-10T13:45:27;5.93;;;3.08;;
36475;SDS011;56615;42.682;23.364;2023-06-10T13:47:53;8.57;;;3.47;;
36475;SDS011;56615;42.682;23.364;2023-06-10T13:50:18;6.65;;;3.45;;
36475;SDS011;56615;42.682;23.364;2023-06-10T13:52:44;6.45;;;3.65;;
36475;SDS011;56615;42.682;23.364;2023-06-10T13:55:10;7.20;;;3.97;;
36475;SDS011;56615;42.682;23.364;2023-06-10T13:57:35;9.70;;;4.30;;
36475;SDS011;56615;42.682;23.364;2023-06-10T14:00:01;7.25;;;3.83;;
36475;SDS011;56615;42.682;23.364;2023-06-10T14:02:28;8.93;;;4.43;;
36475;SDS011;56615;42.682;23.364;2023-06-10T14:04:53;6.05;;;3.80;;
36475;SDS011;56615;42.682;23.364;2023-06-10T14:07:19;8.98;;;4.00;;
36475;SDS011;56615;42.682;23.364;2023-06-10T14:09:44;6.32;;;4.00;;
36475;SDS011;56615;42.682;23.364;2023-06-10T14:12:10;7.10;;;3.63;;
36475;SDS011;56615;42.682;23.364;2023-06-10T14:14:35;6.72;;;3.72;;
36475;SDS011;56615;42.682;23.364;2023-06-10T14:17:01;8.90;;;4.30;;
36475;SDS011;56615;42.682;23.364;2023-06-10T14:19:28;8.68;;;4.13;;
36475;SDS011;56615;42.682;23.364;2023-06-10T14:21:55;5.70;;;3.70;;
36475;SDS011;56615;42.682;23.364;2023-06-10T14:24:22;6.00;;;3.53;;
36475;SDS011;56615;42.682;23.364;2023-06-10T14:26:48;5.53;;;3.58;;
36475;SDS011;56615;42.682;23.364;2023-06-10T14:29:23;7.05;;;3.70;;
36475;SDS011;56615;42.682;23.364;2023-06-10T14:31:50;7.50;;;3.83;;
36475;SDS011;56615;42.682;23.364;2023-06-10T14:34:17;5.97;;;3.22;;
36475;SDS011;56615;42.682;23.364;2023-06-10T14:36:51;8.63;;;3.80;;
36475;SDS011;56615;42.682;23.364;2023-06-10T14:39:18;6.43;;;3.80;;
36475;SDS011;56615;42.682;23.364;2023-06-10T14:41:43;6.32;;;3.80;;
36475;SDS011;56615;42.682;23.364;2023-06-10T14:44:12;7.90;;;4.10;;
36475;SDS011;56615;42.682;23.364;2023-06-10T14:46:42;11.93;;;4.47;;
36475;SDS011;56615;42.682;23.364;2023-06-10T14:49:13;7.07;;;3.90;;
36475;SDS011;56615;42.682;23.364;2023-06-10T14:51:59;7.38;;;3.90;;
36475;SDS011;56615;42.682;23.364;2023-06-10T14:54:28;5.28;;;3.70;;
36475;SDS011;56615;42.682;23.364;2023-06-10T14:57:17;7.97;;;3.80;;
36475;SDS011;56615;42.682;23.364;2023-06-10T14:59:48;6.87;;;3.83;;
36475;SDS011;56615;42.682;23.364;2023-06-10T15:02:14;7.53;;;3.75;;
36475;SDS011;56615;42.682;23.364;2023-06-10T15:04:53;10.38;;;5.35;;
36475;SDS011;56615;42.682;23.364;2023-06-10T15:07:25;5.97;;;3.50;;
36475;SDS011;56615;42.682;23.364;2023-06-10T15:09:51;7.47;;;3.40;;
36475;SDS011;56615;42.682;23.364;2023-06-10T15:12:17;7.30;;;3.60;;
36475;SDS011;56615;42.682;23.364;2023-06-10T15:14:48;6.20;;;3.80;;
36475;SDS011;56615;42.682;23.364;2023-06-10T15:17:16;6.78;;;3.75;;
36475;SDS011;56615;42.682;23.364;2023-06-10T15:19:45;6.05;;;3.47;;
36475;SDS011;56615;42.682;23.364;2023-06-10T15:22:18;7.88;;;3.95;;
36475;SDS011;56615;42.682;23.364;2023-06-10T15:24:48;6.38;;;3.70;;
36475;SDS011;56615;42.682;23.364;2023-06-10T15:27:16;6.22;;;3.63;;